• Join FlightAware (Why Join?)
  • Login
  • US Flag 
Trick or treat! (Boo!!) 
11:11AM EDT


 

Airport Tracker/Info


-or-


 

Live Flight TrackerFlight Track Log ✈ AAY894 ✈ 27-Feb-2014 ✈ KPIE - KIAG

Flight Track Log - Related Links

Times and Time Zones

All times are in EST time to prevent confusion due to time zone crossing. See the AAY894 flight status page for this flight to view local times or setup timezone preferences in your user account.

Time Position Orientation Groundspeed Altitude Reporting Facility
EST Latitude Longitude Course Direction KTS MPH feet Rate Location/Type
08:20AM 27.9333 -82.6833 North 167 192 800  Level Tampa TRACON
08:21AM 27.9833 -82.6667 16° North 239 275 2,700 1,920 Climbing Tampa TRACON
08:23AM 28.1017 -82.6267 17° North 280 322 6,500 2,280 Climbing Jacksonville Center
08:24AM 28.1831 -82.6031 14° North 290 334 8,900 2,220 Climbing Jacksonville Center
08:25AM 28.2664 -82.5886 North 297 342 11,000 1,500 Climbing Jacksonville Center
08:26AM 28.6174 -82.6475 North  Level FlightAware Approximate
08:26AM 28.3667 -82.5742 North 321 369 11,900  Level Jacksonville Center
08:27AM 28.4792 -82.5644 North 367 422 13,800 2,100 Climbing Jacksonville Center
08:28AM 28.5919 -82.5686 358° North 391 450 16,100 2,100 Climbing Jacksonville Center
08:29AM 28.7172 -82.5658 North 402 463 18,000 1,740 Climbing Jacksonville Center
08:30AM 28.8403 -82.5656 360° North 412 474 19,600 1,500 Climbing Jacksonville Center
08:31AM 28.9592 -82.5817 353° North 424 488 21,100 1,260 Climbing Jacksonville Center
08:32AM 29.0825 -82.6003 352° North 430 495 22,200 1,020 Climbing Jacksonville Center
08:33AM 29.2078 -82.6167 353° North 440 506 23,200 960 Climbing Jacksonville Center
08:34AM 29.3225 -82.6306 354° North 457 526 24,200 960 Climbing Jacksonville Center
08:35AM 29.4500 -82.6444 355° North 463 533 25,200 1,020 Climbing Jacksonville Center
08:36AM 29.5772 -82.6561 355° North 463 533 26,300 900 Climbing Jacksonville Center
08:37AM 29.7067 -82.6583 359° North 463 533 27,100 600 Climbing Jacksonville Center
08:38AM 29.8383 -82.6458 North 463 533 27,600 600 Climbing Jacksonville Center
08:39AM 29.9719 -82.6361 North 463 533 28,300 720 Climbing Jacksonville Center
08:40AM 30.1033 -82.6261 North 469 540 29,100 600 Climbing Jacksonville Center
08:41AM 30.2350 -82.6136 North 469 540 29,600 480 Climbing Jacksonville Center
08:42AM 30.3664 -82.6036 North 474 545 30,100 480 Climbing Jacksonville Center
08:43AM 30.5022 -82.5936 North 479 551 30,600 360 Climbing Jacksonville Center
08:44AM 30.6378 -82.5811 North 479 551 30,900 540 Climbing Jacksonville Center
08:45AM 30.7692 -82.5686 North 479 551 31,700 660 Climbing Jacksonville Center
08:46AM 30.9008 -82.5583 North 479 551 32,300 300 Climbing Jacksonville Center
08:47AM 31.0303 -82.5458 North 474 545 32,400 60 Climbing Jacksonville Center
08:48AM 31.1658 -82.5356 North 474 545 32,500 120 Climbing Jacksonville Center
08:49AM 31.2975 -82.5278 North 479 551 32,700 240 Climbing Jacksonville Center
08:50AM 31.4289 -82.5153 North 479 551 33,000 60 Climbing Jacksonville Center
08:53AM 31.7492 -82.4758 North 454 522 33,000  Level Atlanta Center
08:54AM 31.8847 -82.4539 North 459 528 33,000  Level Atlanta Center
08:55AM 32.0136 -82.4319 North 464 534 33,000  Level Atlanta Center
08:56AM 32.1450 -82.4125 North 469 540 33,000  Level Atlanta Center
08:57AM 32.2719 -82.3906 North 463 533 33,000  Level Atlanta Center
08:58AM 32.3992 -82.3708 North 457 526 33,000  Level Atlanta Center
08:59AM 32.5281 -82.3514 North 462 532 33,000  Level Atlanta Center
09:00AM 32.6594 -82.3314 North 462 532 33,000  Level Atlanta Center
09:01AM 32.7864 -82.3092 North 467 537 33,000  Level Atlanta Center
09:02AM 32.9197 -82.2892 North 461 531 33,000  Level Atlanta Center
09:03AM 33.0489 -82.2694 North 461 531 33,000  Level Atlanta Center
09:04AM 33.1925 -82.2442 North 461 531 33,000  Level Atlanta Center
09:05AM 33.3194 -82.2242 North 470 541 33,000  Level Atlanta Center
09:06AM 33.4467 -82.2014 North 465 535 33,000  Level Atlanta Center
09:07AM 33.5714 -82.1839 North 465 535 33,000  Level Atlanta Center
09:08AM 33.6986 -82.1611 North 465 535 33,000  Level Atlanta Center
09:09AM 33.8297 -82.1383 North 465 535 33,000  Level Atlanta Center
09:10AM 33.9567 -82.1178 North 465 535 33,000  Level Atlanta Center
09:11AM 34.0836 -82.0950 North 465 535 33,000  Level Atlanta Center
09:12AM 34.2000 -82.0747 North 465 535 33,000  Level Atlanta Center
09:13AM 34.3269 -82.0517 North 458 527 33,000  Level Atlanta Center
09:14AM 34.4519 -82.0311 North 458 527 33,000  Level Atlanta Center
09:15AM 34.5808 -82.0078 North 464 534 33,000  Level Atlanta Center
09:16AM 34.7058 -81.9869 North 459 528 33,000  Level Atlanta Center
09:17AM 34.8328 -81.9636 North 459 528 33,000  Level Atlanta Center
09:18AM 34.9575 -81.9403 North 459 528 33,000  Level Atlanta Center
09:19AM 35.0803 -81.9144 10° North 459 528 33,000  Level Atlanta Center
09:20AM 35.2069 -81.8833 11° North 454 522 33,000  Level Atlanta Center
09:21AM 35.3272 -81.8444 15° North 454 522 33,000  Level Atlanta Center
09:22AM 35.4539 -81.8106 12° North 449 517 33,000  Level Atlanta Center
09:23AM 35.5783 -81.7739 13° North 459 528 33,000  Level Atlanta Center
09:24AM 35.7028 -81.7347 14° North 459 528 33,000  Level Atlanta Center
09:25AM 35.8233 -81.7006 13° North 447 514 33,000  Level Atlanta Center
09:26AM 35.9456 -81.6661 13° North 447 514 33,000  Level Atlanta Center
09:27AM 36.0681 -81.6292 14° North 447 514 33,000  Level Atlanta Center
09:29AM 36.3542 -81.5469 13° North 451 519 33,000  Level Indianapolis Center
09:30AM 36.4756 -81.5111 13° North 451 519 33,000  Level Indianapolis Center
09:31AM 36.5983 -81.4756 13° North 452 520 33,000  Level Indianapolis Center
09:32AM 36.7200 -81.4394 13° North 454 522 33,000  Level Indianapolis Center
09:33AM 36.8436 -81.4028 13° North 458 527 33,000  Level Indianapolis Center
09:34AM 36.9906 -81.3597 13° North 460 529 33,000  Level Indianapolis Center
09:35AM 37.1194 -81.3208 14° North 460 529 33,000  Level Indianapolis Center
09:36AM 37.2433 -81.2836 13° North 459 528 33,000  Level Indianapolis Center
09:37AM 37.3522 -81.2514 13° North 454 522 33,000  Level Indianapolis Center
09:38AM 37.4908 -81.2106 13° North 441 507 33,000  Level Indianapolis Center
09:39AM 37.6103 -81.1747 13° North 444 511 33,000  Level Indianapolis Center
09:40AM 37.7294 -81.1386 13° North 448 516 33,000  Level Indianapolis Center
09:41AM 37.8575 -81.1006 13° North 448 516 33,000  Level Indianapolis Center
09:42AM 37.9761 -81.0667 13° North 443 510 33,000  Level Indianapolis Center
09:43AM 38.0956 -81.0319 13° North 441 507 33,000  Level Indianapolis Center
09:44AM 38.2361 -80.9908 13° North 436 502 33,000  Level Indianapolis Center
09:45AM 38.3553 -80.9561 13° North 436 502 33,000  Level Indianapolis Center
09:46AM 38.4744 -80.9208 13° North 437 503 33,000  Level Indianapolis Center
09:47AM 38.5939 -80.8864 13° North 438 504 33,000  Level Indianapolis Center
09:48AM 38.7150 -80.8514 13° North 442 509 33,000  Level Indianapolis Center
09:49AM 38.8597 -80.8075 13° North 447 514 33,000  Level Indianapolis Center
09:50AM 38.9811 -80.7714 13° North 447 514 33,000  Level Indianapolis Center
09:52AM 39.1042 -80.7333 13° North 451 519 33,000  Level Indianapolis Center
09:53AM 39.2258 -80.6969 13° North 451 519 33,000  Level Indianapolis Center
09:54AM 39.3456 -80.6619 13° North 446 513 33,000  Level Indianapolis Center
09:55AM 39.4653 -80.6294 12° North 444 511 33,000  Level Indianapolis Center
09:56AM 39.6067 -80.5858 13° North 438 504 33,000  Level Indianapolis Center
09:57AM 39.7233 -80.5411 16° North 438 504 33,000  Level Indianapolis Center
09:58AM 39.8392 -80.4878 19° North 438 504 33,000  Level Indianapolis Center
09:59AM 39.9586 -80.4344 19° North 439 505 33,000  Level Indianapolis Center
10:00AM 40.0758 -80.3844 18° North 439 505 33,000  Level Indianapolis Center
10:01AM 40.1881 -80.3322 20° North 439 505 33,000  Level Indianapolis Center
10:02AM 40.3097 -80.2806 18° North 439 505 33,000 -180 Level Indianapolis Center
10:03AM 40.4683 -80.2103 19° North 429 494 32,700 -420 Descending Cleveland Center
10:04AM 40.5858 -80.1553 20° North 451 519 32,100 -540 Descending Cleveland Center
10:05AM 40.7022 -80.1022 19° North 444 511 31,600 -540 Descending Cleveland Center
10:06AM 40.8181 -80.0486 19° North 443 510 31,100 -480 Descending Cleveland Center
10:07AM 40.9256 -79.9989 19° North 443 510 30,700 -540 Descending Cleveland Center
10:08AM 41.0619 -79.9367 19° North 436 502 30,100 -540 Descending Cleveland Center
10:09AM 41.1622 -79.8919 19° North 433 498 29,700 -540 Descending Cleveland Center
10:10AM 41.2964 -79.8306 19° North 427 491 29,000 -600 Descending Cleveland Center
10:11AM 41.4094 -79.7789 19° North 427 491 28,500 -480 Descending Cleveland Center
10:12AM 41.5200 -79.7283 19° North 422 486 28,100 -420 Descending Cleveland Center
10:13AM 41.6336 -79.6756 19° North 429 494 27,700 -540 Descending Cleveland Center
10:14AM 41.7442 -79.6244 19° North 424 488 27,000 -1,260 Descending Cleveland Center
10:15AM 41.8536 -79.5731 19° North 420 483 25,100 -2,400 Descending Cleveland Center
10:16AM 41.9633 -79.5222 19° North 416 479 22,100 -2,940 Descending Cleveland Center
10:18AM 42.0936 -79.4594 20° North 416 479 19,100 -2,880 Descending Cleveland Center
10:19AM 42.1975 -79.4111 19° North 401 461 16,300 -2,700 Descending Cleveland Center
10:20AM 42.2986 -79.3647 19° North 387 445 13,600 -2,520 Descending Cleveland Center
10:21AM 42.3969 -79.3169 20° North 378 435 11,200 -1,320 Descending Cleveland Center
10:22AM 42.4947 -79.2722 19° North 360 414 11,000 -120 Descending Cleveland Center
10:23AM 42.5881 -79.2300 18° North 354 407 11,000 -540 Level Cleveland Center
10:24AM 42.6881 -79.1842 19° North 343 395 9,900 -1,140 Descending Cleveland Center
10:25AM 42.7625 -79.1244 30° Northeast 314 361 8,700 -1,320 Descending Cleveland Center
10:26AM 42.8194 -79.0475 45° Northeast 305 351 7,200 -840 Descending Cleveland Center
10:27AM 42.8792 -78.9664 45° Northeast 297 342 7,000 -480 Descending Cleveland Center
10:28AM 42.9378 -78.8861 45° Northeast 290 334 6,300 -1,080 Descending Cleveland Center
10:29AM 42.9833 -78.8333 40° Northeast 277 319 5,200 -1,020 Descending Buffalo TRACON
10:30AM 43.0167 -78.7667 56° Northeast 230 265 4,600 -660 Descending Buffalo TRACON
10:31AM 43.0667 -78.7167 36° Northeast 194 223 3,900 -660 Descending Buffalo TRACON
10:32AM 43.1000 -78.7333 340° North 133 153 3,300 -900 Descending Buffalo TRACON
10:33AM 43.1167 -78.8000 289° West 152 175 2,200 -780 Descending Buffalo TRACON
10:34AM 43.1167 -78.8500 270° West 111 128 1,800 -600 Descending Buffalo TRACON
10:35AM 43.1167 -78.8833 270° West 119 137 1,100 -300 Descending Buffalo TRACON
10:35AM 43.1086 -78.9064 244° Southwest 122 140 1,400 540 Climbing Cleveland Center